createdAt,value
2019-05-12T00:01:58.779Z,86.70
2019-05-12T00:04:30.811Z,86.80
2019-05-12T00:07:02.858Z,86.70
2019-05-12T00:09:35.077Z,86.60
2019-05-12T00:12:08.226Z,86.00
2019-05-12T00:14:40.435Z,86.50
2019-05-12T00:17:12.179Z,86.50
2019-05-12T00:19:44.483Z,86.40
2019-05-12T00:22:18.188Z,86.10
2019-05-12T00:24:50.264Z,86.10
2019-05-12T00:27:23.708Z,86.30
2019-05-12T00:29:57.845Z,85.90
2019-05-12T00:32:29.921Z,86.10
2019-05-12T00:35:02.153Z,85.60
2019-05-12T00:37:33.984Z,85.60
2019-05-12T00:40:12.185Z,85.50
2019-05-12T00:42:45.323Z,85.20
2019-05-12T00:45:18.174Z,85.10
2019-05-12T00:48:09.791Z,84.60
2019-05-12T00:50:42.834Z,84.50
2019-05-12T00:53:15.209Z,84.50
2019-05-12T00:55:47.641Z,84.50
2019-05-12T00:58:20.025Z,84.10
2019-05-12T01:00:51.966Z,83.80
2019-05-12T01:03:24.238Z,83.40
2019-05-12T01:05:57.747Z,83.30
2019-05-12T01:08:30.218Z,83.30
2019-05-12T01:11:02.839Z,83.00
2019-05-12T01:13:35.322Z,83.00
2019-05-12T01:16:08.152Z,83.70
2019-05-12T01:18:40.596Z,83.00
2019-05-12T01:21:12.652Z,82.70
2019-05-12T01:23:56.437Z,82.50
2019-05-12T01:26:18.933Z,82.20
2019-05-12T01:28:51.079Z,81.30
2019-05-12T01:31:24.727Z,81.60
2019-05-12T01:33:58.576Z,80.30
2019-05-12T01:36:30.780Z,80.30
2019-05-12T01:39:02.826Z,80.30
2019-05-12T01:41:35.005Z,80.20
2019-05-12T01:44:08.869Z,79.30
2019-05-12T01:46:40.989Z,79.30
2019-05-12T01:49:13.245Z,79.50
2019-05-12T01:51:47.657Z,79.50
2019-05-12T01:54:20.619Z,78.60
2019-05-12T01:56:52.383Z,78.50
2019-05-12T01:59:24.626Z,77.70
2019-05-12T02:01:58.102Z,77.20
2019-05-12T02:04:34.298Z,76.60
2019-05-12T02:07:08.409Z,75.60
2019-05-12T02:09:41.713Z,75.50
2019-05-12T02:12:13.968Z,73.80
2019-05-12T02:14:48.547Z,72.70
2019-05-12T02:17:20.315Z,72.80
2019-05-12T02:19:52.664Z,72.50
2019-05-12T02:22:24.714Z,72.10
2019-05-12T02:24:58.437Z,72.20
2019-05-12T02:27:30.418Z,70.70
2019-05-12T02:30:02.872Z,70.20
2019-05-12T02:32:44.896Z,70.40
2019-05-12T02:35:09.916Z,69.50
2019-05-12T02:37:45.139Z,69.10
2019-05-12T02:40:16.477Z,67.30
2019-05-12T02:42:48.528Z,67.50
2019-05-12T02:45:21.449Z,67.00
2019-05-12T02:48:15.536Z,66.90
2019-05-12T02:50:47.859Z,66.00
2019-05-12T02:53:20.028Z,66.00
2019-05-12T02:55:55.094Z,66.20
2019-05-12T02:58:30.498Z,66.10
2019-05-12T03:01:05.783Z,65.20
2019-05-12T03:03:40.667Z,65.80
2019-05-12T03:06:15.207Z,64.80
2019-05-12T03:08:49.106Z,64.60
2019-05-12T03:11:24.808Z,64.30
2019-05-12T03:13:56.812Z,64.40
2019-05-12T03:16:29.244Z,63.70
2019-05-12T03:19:04.547Z,64.10
2019-05-12T03:21:35.887Z,64.40
2019-05-12T03:24:08.351Z,63.60
2019-05-12T03:26:40.291Z,63.90
2019-05-12T03:29:14.804Z,63.40
2019-05-12T03:31:49.343Z,63.50
2019-05-12T03:34:21.735Z,63.30
2019-05-12T03:36:59.062Z,63.40
2019-05-12T03:39:27.765Z,63.00
2019-05-12T03:41:59.927Z,63.00
2019-05-12T03:44:35.029Z,62.70
2019-05-12T03:47:05.946Z,62.40
2019-05-12T03:49:38.049Z,62.50
2019-05-12T03:52:11.031Z,62.20
2019-05-12T03:54:45.173Z,62.30
2019-05-12T03:57:18.518Z,63.10
2019-05-12T03:59:50.710Z,62.10
2019-05-12T04:02:25.068Z,61.80
2019-05-12T04:04:56.238Z,61.40
2019-05-12T04:07:28.789Z,61.80
2019-05-12T04:10:00.926Z,62.20
2019-05-12T04:12:34.556Z,61.10
2019-05-12T04:15:08.056Z,61.50
2019-05-12T04:18:00.279Z,61.50
2019-05-12T04:20:37.663Z,61.70
2019-05-12T04:23:09.724Z,62.00
2019-05-12T04:25:52.000Z,61.90
2019-05-12T04:28:15.861Z,62.20
2019-05-12T04:30:48.238Z,62.50
2019-05-12T04:33:20.346Z,62.60
2019-05-12T04:35:55.194Z,63.10
2019-05-12T04:38:26.081Z,63.50
2019-05-12T04:40:58.695Z,62.70
2019-05-12T04:43:30.756Z,62.70
2019-05-12T04:46:05.132Z,62.90
2019-05-12T04:48:36.797Z,62.20
2019-05-12T04:51:08.914Z,61.50
2019-05-12T04:53:44.650Z,61.20
2019-05-12T04:56:20.148Z,61.60
2019-05-12T04:58:48.262Z,61.30
2019-05-12T05:01:20.460Z,61.20
2019-05-12T05:03:54.572Z,60.50
2019-05-12T05:06:26.638Z,60.10
2019-05-12T05:08:59.239Z,59.40
2019-05-12T05:11:34.332Z,59.80
2019-05-12T05:14:05.639Z,57.60
2019-05-12T05:16:38.873Z,57.90
2019-05-12T05:19:11.288Z,58.70
2019-05-12T05:21:45.758Z,58.60
2019-05-12T05:24:18.054Z,57.10
2019-05-12T05:26:49.995Z,56.50
2019-05-12T05:29:23.894Z,56.30
2019-05-12T05:31:55.530Z,56.10
2019-05-12T05:34:27.419Z,56.00
2019-05-12T05:37:01.465Z,56.00
2019-05-12T05:39:37.269Z,56.60
2019-05-12T05:42:07.128Z,56.00
2019-05-12T05:44:39.824Z,55.20
2019-05-12T05:47:13.867Z,55.70
2019-05-12T05:49:46.239Z,56.40
2019-05-12T05:52:38.854Z,56.00
2019-05-12T05:55:18.186Z,55.10
2019-05-12T05:57:45.000Z,55.40
2019-05-12T06:00:23.029Z,55.30
2019-05-12T06:02:54.449Z,55.00
2019-05-12T06:05:44.975Z,54.90
2019-05-12T06:08:20.865Z,54.80
2019-05-12T06:10:53.806Z,54.60
2019-05-12T06:13:27.335Z,54.60
2019-05-12T06:15:59.059Z,54.60
2019-05-12T06:18:33.457Z,54.30
2019-05-12T06:21:05.605Z,55.00
2019-05-12T06:23:39.288Z,53.00
2019-05-12T06:26:13.998Z,53.60
2019-05-12T06:28:45.510Z,53.70
2019-05-12T06:31:28.283Z,53.30
2019-05-12T06:34:15.172Z,52.00
2019-05-12T06:37:03.100Z,53.30
2019-05-12T06:39:34.637Z,51.50
2019-05-12T06:42:12.300Z,51.80
2019-05-12T06:44:40.813Z,51.50
2019-05-12T06:47:14.348Z,52.40
2019-05-12T06:49:48.758Z,51.20
2019-05-12T06:52:20.068Z,50.60
2019-05-12T06:54:56.572Z,51.40
2019-05-12T06:57:28.757Z,51.50
2019-05-12T06:59:59.252Z,50.80
2019-05-12T07:02:36.243Z,50.60
2019-05-12T07:05:06.921Z,51.00
2019-05-12T07:07:46.060Z,51.20
2019-05-12T07:10:35.063Z,50.80
2019-05-12T07:13:00.719Z,50.50
2019-05-12T07:15:23.398Z,49.90
2019-05-12T07:20:40.839Z,49.90
2019-05-12T07:23:14.219Z,48.60
2019-05-12T07:25:47.077Z,49.80
2019-05-12T07:28:19.192Z,48.80
2019-05-12T07:30:54.324Z,49.10
2019-05-12T07:33:25.680Z,49.30
2019-05-12T07:36:01.537Z,48.80
2019-05-12T07:38:38.067Z,48.90
2019-05-12T07:41:11.367Z,48.40
2019-05-12T07:43:50.567Z,48.30
2019-05-12T07:46:20.999Z,48.00
2019-05-12T07:48:54.230Z,47.30
2019-05-12T07:51:30.451Z,47.50
2019-05-12T07:54:00.735Z,47.60
2019-05-12T07:56:35.853Z,47.60
2019-05-12T07:59:06.672Z,47.20
2019-05-12T08:01:48.206Z,47.20
2019-05-12T08:04:13.495Z,47.40
2019-05-12T08:06:46.681Z,46.80
2019-05-12T08:09:24.028Z,46.70
2019-05-12T08:11:54.057Z,47.70
2019-05-12T08:14:29.390Z,47.10
2019-05-12T08:17:02.004Z,48.50
2019-05-12T08:19:33.916Z,47.90
2019-05-12T08:22:23.821Z,48.00
2019-05-12T08:24:53.781Z,47.90
2019-05-12T08:27:26.165Z,49.20
2019-05-12T08:30:00.958Z,48.60
2019-05-12T08:32:33.850Z,48.50
2019-05-12T08:35:07.363Z,48.90
2019-05-12T08:37:39.746Z,48.30
2019-05-12T08:40:12.521Z,48.60
2019-05-12T08:42:44.681Z,48.70
2019-05-12T08:45:25.723Z,49.70
2019-05-12T08:47:50.595Z,48.80
2019-05-12T08:50:31.334Z,48.70
2019-05-12T08:52:56.676Z,48.80
2019-05-12T08:55:31.240Z,48.70
2019-05-12T08:58:28.187Z,48.70
2019-05-12T09:01:04.534Z,48.80
2019-05-12T09:03:37.153Z,48.80
2019-05-12T09:06:29.400Z,49.60
2019-05-12T09:09:03.498Z,49.30
2019-05-12T09:11:35.610Z,49.30
2019-05-12T09:14:08.890Z,49.10
2019-05-12T09:16:43.821Z,49.30
2019-05-12T09:19:20.324Z,49.30
2019-05-12T09:21:49.391Z,48.90
2019-05-12T09:24:26.959Z,49.30
2019-05-12T09:26:59.111Z,49.20
2019-05-12T09:29:29.261Z,49.00
2019-05-12T09:32:05.310Z,48.90
2019-05-12T09:34:35.323Z,49.20
2019-05-12T09:37:07.616Z,49.50
2019-05-12T09:39:42.814Z,49.60
2019-05-12T09:42:14.233Z,49.50
2019-05-12T09:44:46.175Z,49.60
2019-05-12T09:47:22.964Z,49.10
2019-05-12T09:49:53.575Z,49.60
2019-05-12T09:52:27.208Z,49.30
2019-05-12T09:54:59.492Z,49.60
2019-05-12T09:57:39.632Z,49.70
2019-05-12T10:00:25.029Z,49.80
2019-05-12T10:03:00.673Z,49.80
2019-05-12T10:05:39.195Z,49.80
2019-05-12T10:08:05.837Z,50.10
2019-05-12T10:10:40.405Z,50.40
2019-05-12T10:13:13.817Z,50.50
2019-05-12T10:15:46.059Z,50.40
2019-05-12T10:18:18.139Z,50.70
2019-05-12T10:20:50.820Z,50.90
2019-05-12T10:23:27.253Z,51.00
2019-05-12T10:26:01.447Z,50.80
2019-05-12T10:28:30.939Z,51.70
2019-05-12T10:31:04.151Z,51.50
2019-05-12T10:33:39.228Z,51.60
2019-05-12T10:36:11.708Z,51.80
2019-05-12T10:38:43.671Z,52.10
2019-05-12T10:41:15.556Z,52.40
2019-05-12T10:43:48.325Z,52.80
2019-05-12T10:46:26.944Z,53.00
2019-05-12T10:48:55.466Z,53.20
2019-05-12T10:51:27.772Z,53.70
2019-05-12T10:54:09.192Z,54.20
2019-05-12T10:56:34.790Z,54.10
2019-05-12T10:59:53.273Z,54.40
2019-05-12T11:02:28.780Z,54.60
2019-05-12T11:04:58.401Z,55.00
2019-05-12T11:07:30.803Z,55.00
2019-05-12T11:10:14.896Z,55.10
2019-05-12T11:12:37.307Z,55.40
2019-05-12T11:15:13.429Z,55.40
2019-05-12T11:17:49.768Z,55.60
2019-05-12T11:20:19.983Z,56.00
2019-05-12T11:22:54.307Z,56.30
2019-05-12T11:25:26.003Z,56.50
2019-05-12T11:27:58.592Z,56.60
2019-05-12T11:30:30.901Z,56.90
2019-05-12T11:33:04.347Z,56.80
2019-05-12T11:35:37.634Z,56.90
2019-05-12T11:38:09.889Z,57.10
2019-05-12T11:40:43.804Z,57.20
2019-05-12T11:43:15.603Z,57.30
2019-05-12T11:45:47.490Z,57.20
2019-05-12T11:48:19.536Z,57.90
2019-05-12T11:50:54.197Z,57.90
2019-05-12T11:53:30.827Z,57.90
2019-05-12T11:56:02.202Z,58.00
2019-05-12T11:58:33.597Z,58.70
2019-05-12T12:01:08.373Z,58.50
2019-05-12T12:03:40.841Z,58.60
2019-05-12T12:06:13.529Z,58.60
2019-05-12T12:09:09.342Z,59.00
2019-05-12T12:11:39.828Z,58.80
2019-05-12T12:14:13.844Z,59.00
2019-05-12T12:16:49.968Z,59.20
2019-05-12T12:19:19.659Z,59.60
2019-05-12T12:21:53.627Z,59.50
2019-05-12T12:24:31.302Z,59.20
2019-05-12T12:27:06.391Z,59.60
2019-05-12T12:29:38.344Z,59.70
2019-05-12T12:32:18.554Z,59.80
2019-05-12T12:34:44.166Z,60.60
2019-05-12T12:37:19.044Z,61.20
2019-05-12T12:39:49.969Z,60.50
2019-05-12T12:42:25.282Z,61.20
2019-05-12T12:44:58.697Z,60.20
2019-05-12T12:47:37.996Z,60.60
2019-05-12T12:50:04.670Z,60.90
2019-05-12T12:52:38.694Z,60.60
2019-05-12T12:55:11.264Z,60.50
2019-05-12T12:57:46.343Z,60.60
2019-05-12T13:00:29.774Z,60.40
2019-05-12T13:02:52.655Z,60.60
2019-05-12T13:05:25.116Z,61.10
2019-05-12T13:07:57.191Z,61.80
2019-05-12T13:10:29.374Z,62.00
2019-05-12T13:13:04.142Z,61.20
2019-05-12T13:15:35.996Z,61.20
2019-05-12T13:18:09.233Z,61.20
2019-05-12T13:20:43.438Z,62.50
2019-05-12T13:23:15.002Z,61.40
2019-05-12T13:25:50.534Z,61.60
2019-05-12T13:28:25.126Z,61.60
2019-05-12T13:31:16.109Z,61.50
2019-05-12T13:33:49.462Z,61.90
2019-05-12T13:36:21.383Z,61.80
2019-05-12T13:38:53.756Z,62.20
2019-05-12T13:41:26.118Z,61.80
2019-05-12T13:44:17.752Z,62.10
2019-05-12T13:46:54.814Z,62.10
2019-05-12T13:49:24.672Z,62.70
2019-05-12T13:51:56.404Z,62.40
2019-05-12T13:54:30.065Z,62.50
2019-05-12T13:57:03.888Z,62.90
2019-05-12T13:59:35.720Z,62.50
2019-05-12T14:02:08.154Z,62.50
2019-05-12T14:04:40.746Z,62.80
2019-05-12T14:07:15.707Z,62.50
2019-05-12T14:09:46.992Z,63.50
2019-05-12T14:12:37.891Z,62.70
2019-05-12T14:15:14.163Z,62.70
2019-05-12T14:17:46.356Z,62.80
2019-05-12T14:20:20.285Z,63.30
2019-05-12T14:22:53.826Z,63.20
2019-05-12T14:25:30.992Z,63.10
2019-05-12T14:28:05.322Z,63.20
2019-05-12T14:30:33.881Z,63.50
2019-05-12T14:33:05.890Z,63.50
2019-05-12T14:35:40.752Z,63.80
2019-05-12T14:38:14.114Z,63.50
2019-05-12T14:41:10.381Z,63.70
2019-05-12T14:43:39.546Z,63.70
2019-05-12T14:46:13.474Z,63.80
2019-05-12T14:48:50.287Z,64.00
2019-05-12T14:51:19.496Z,64.10
2019-05-12T14:53:53.544Z,64.40
2019-05-12T14:56:25.575Z,64.20
2019-05-12T14:59:00.737Z,64.10
2019-05-12T15:01:44.128Z,64.50
2019-05-12T15:04:05.324Z,64.30
2019-05-12T15:06:37.672Z,65.10
2019-05-12T15:09:11.523Z,64.80
2019-05-12T15:11:45.006Z,65.00
2019-05-12T15:14:17.164Z,64.80
2019-05-12T15:16:49.752Z,64.90
2019-05-12T15:19:25.863Z,64.50
2019-05-12T15:22:14.993Z,64.60
2019-05-12T15:24:49.344Z,65.00
2019-05-12T15:27:37.885Z,65.10
2019-05-12T15:29:59.424Z,65.40
2019-05-12T15:32:49.117Z,65.70
2019-05-12T15:35:24.067Z,66.20
2019-05-12T15:37:56.169Z,65.40
2019-05-12T15:40:28.111Z,65.60
2019-05-12T15:43:00.735Z,66.50
2019-05-12T15:45:34.355Z,66.30
2019-05-12T15:48:06.537Z,66.40
2019-05-12T15:50:38.648Z,66.70
2019-05-12T15:53:24.619Z,66.50
2019-05-12T15:55:55.618Z,67.00
2019-05-12T15:58:27.740Z,66.60
2019-05-12T16:01:18.925Z,66.50
2019-05-12T16:03:50.887Z,66.70
2019-05-12T16:06:22.855Z,66.90
2019-05-12T16:08:55.303Z,67.20
2019-05-12T16:11:30.443Z,66.80
2019-05-12T16:14:02.579Z,68.00
2019-05-12T16:16:42.380Z,67.70
2019-05-12T16:19:08.584Z,68.10
2019-05-12T16:21:45.328Z,67.10
2019-05-12T16:24:15.770Z,66.60
2019-05-12T16:26:51.901Z,67.40
2019-05-12T16:29:23.433Z,67.00
2019-05-12T16:31:55.571Z,66.60
2019-05-12T16:34:27.823Z,67.00
2019-05-12T16:37:03.889Z,67.20
2019-05-12T16:39:37.084Z,66.80
2019-05-12T16:42:10.706Z,67.00
2019-05-12T16:44:44.043Z,66.90
2019-05-12T16:47:18.662Z,67.40
2019-05-12T16:49:53.329Z,67.20
2019-05-12T16:52:24.807Z,67.20
2019-05-12T16:54:57.162Z,67.00
2019-05-12T16:57:29.191Z,67.70
2019-05-12T17:00:20.553Z,67.90
2019-05-12T17:02:57.787Z,67.90
2019-05-12T17:05:26.967Z,67.70
2019-05-12T17:07:59.082Z,67.80
2019-05-12T17:10:31.204Z,68.60
2019-05-12T17:13:07.524Z,67.90
2019-05-12T17:16:00.002Z,69.10
2019-05-12T17:18:33.926Z,68.70
2019-05-12T17:21:05.803Z,68.70
2019-05-12T17:23:38.180Z,68.70
2019-05-12T17:26:10.691Z,69.00
2019-05-12T17:28:43.603Z,69.10
2019-05-12T17:31:15.717Z,69.30
2019-05-12T17:33:48.573Z,69.60
2019-05-12T17:36:20.796Z,70.10
2019-05-12T17:38:56.112Z,69.80
2019-05-12T17:41:31.416Z,70.30
2019-05-12T17:44:01.703Z,70.80
2019-05-12T17:46:37.843Z,70.70
2019-05-12T17:49:08.819Z,70.70
2019-05-12T17:51:41.167Z,70.80
2019-05-12T17:54:21.340Z,71.00
2019-05-12T17:56:47.396Z,70.90
2019-05-12T17:59:24.432Z,71.00
2019-05-12T18:01:54.701Z,70.80
2019-05-12T18:04:30.528Z,70.90
2019-05-12T18:07:04.345Z,70.90
2019-05-12T18:09:34.971Z,70.60
2019-05-12T18:12:07.310Z,71.00
2019-05-12T18:14:49.003Z,70.60
2019-05-12T18:17:14.205Z,70.80
2019-05-12T18:20:07.812Z,70.60
2019-05-12T18:22:45.057Z,70.90
2019-05-12T18:25:29.428Z,70.50
2019-05-12T18:27:54.220Z,70.60
2019-05-12T18:30:26.425Z,70.70
2019-05-12T18:33:04.674Z,71.20
2019-05-12T18:35:32.640Z,71.00
2019-05-12T18:38:07.950Z,70.90
2019-05-12T18:40:39.750Z,70.50
2019-05-12T18:43:14.225Z,71.10
2019-05-12T18:45:48.877Z,71.10
2019-05-12T18:48:22.207Z,71.10
2019-05-12T18:50:53.688Z,71.20
2019-05-12T18:53:31.506Z,70.30
2019-05-12T18:55:59.995Z,70.50
2019-05-12T18:58:33.343Z,71.20
2019-05-12T19:01:06.857Z,70.50
2019-05-12T19:03:50.279Z,70.70
2019-05-12T19:06:14.057Z,70.80
2019-05-12T19:08:46.463Z,71.50
2019-05-12T19:11:22.983Z,71.80
2019-05-12T19:13:56.967Z,72.00
2019-05-12T19:16:26.463Z,71.70
2019-05-12T19:18:58.762Z,71.50
2019-05-12T19:21:31.792Z,71.50
2019-05-12T19:24:08.607Z,71.30
2019-05-12T19:26:38.443Z,71.40
2019-05-12T19:29:14.013Z,71.40
2019-05-12T19:31:52.503Z,71.10
2019-05-12T19:34:22.479Z,71.60
2019-05-12T19:36:53.670Z,71.60
2019-05-12T19:39:25.586Z,72.00
2019-05-12T19:42:00.069Z,71.40
2019-05-12T19:44:34.119Z,71.50
2019-05-12T19:47:06.017Z,71.60
2019-05-12T19:49:47.632Z,72.20
2019-05-12T19:52:14.023Z,71.60
2019-05-12T19:54:46.139Z,71.70
2019-05-12T19:57:21.925Z,71.70
2019-05-12T19:59:55.494Z,71.90
2019-05-12T20:02:26.319Z,72.70
2019-05-12T20:04:58.270Z,72.10
2019-05-12T20:07:49.417Z,72.40
2019-05-12T20:10:24.363Z,72.20
2019-05-12T20:12:57.106Z,71.60
2019-05-12T20:15:49.973Z,71.80
2019-05-12T20:18:23.619Z,71.60
2019-05-12T20:20:56.605Z,72.00
2019-05-12T20:23:28.996Z,71.30
2019-05-12T20:26:00.823Z,70.90
2019-05-12T20:28:34.589Z,70.90
2019-05-12T20:31:07.425Z,70.30
2019-05-12T20:33:39.902Z,70.60
2019-05-12T20:36:14.107Z,70.60
2019-05-12T20:38:46.033Z,69.80
2019-05-12T20:41:23.463Z,70.10
2019-05-12T20:43:52.288Z,70.30
2019-05-12T20:46:26.021Z,70.40
2019-05-12T20:49:01.270Z,70.70
2019-05-12T20:51:36.213Z,70.70
2019-05-12T20:54:14.069Z,71.10
2019-05-12T20:56:43.523Z,70.70
2019-05-12T20:59:22.162Z,70.90
2019-05-12T21:01:53.422Z,71.10
2019-05-12T21:04:31.133Z,71.30
2019-05-12T21:07:14.103Z,71.20
2019-05-12T21:09:45.301Z,71.00
2019-05-12T21:12:45.397Z,71.10
2019-05-12T21:15:20.750Z,71.60
2019-05-12T21:18:02.615Z,71.20
2019-05-12T21:20:33.707Z,72.00
2019-05-12T21:23:04.836Z,71.30
2019-05-12T21:25:37.250Z,71.50
2019-05-12T21:28:29.369Z,71.50
2019-05-12T21:31:03.657Z,71.80
2019-05-12T21:33:40.051Z,72.00
2019-05-12T21:36:15.562Z,71.80
2019-05-12T21:38:44.113Z,71.90
2019-05-12T21:41:16.520Z,72.20
2019-05-12T21:43:48.916Z,72.30
2019-05-12T21:46:21.357Z,72.90
2019-05-12T21:48:56.206Z,73.20
2019-05-12T21:51:27.183Z,73.70
2019-05-12T21:53:59.040Z,73.60
2019-05-12T21:56:37.935Z,74.10
2019-05-12T21:59:04.916Z,73.70
2019-05-12T22:01:43.276Z,74.30
2019-05-12T22:04:11.293Z,74.60
2019-05-12T22:06:43.935Z,74.70
2019-05-12T22:09:17.582Z,74.70
2019-05-12T22:11:53.358Z,75.00
2019-05-12T22:14:24.164Z,75.10
2019-05-12T22:16:57.733Z,75.20
2019-05-12T22:19:35.148Z,75.30
2019-05-12T22:22:05.487Z,75.60
2019-05-12T22:24:39.038Z,75.60
2019-05-12T22:27:18.996Z,75.20
2019-05-12T22:29:45.046Z,76.00
2019-05-12T22:32:19.184Z,76.00
2019-05-12T22:34:51.025Z,76.20
2019-05-12T22:37:23.953Z,76.60
2019-05-12T22:40:06.242Z,76.60
2019-05-12T22:45:44.121Z,77.00
2019-05-12T22:48:13.578Z,76.80
2019-05-12T22:50:45.625Z,77.20
2019-05-12T22:53:19.420Z,77.00
2019-05-12T22:55:53.422Z,77.40
2019-05-12T22:58:25.779Z,77.40
2019-05-12T23:01:01.097Z,77.60
2019-05-12T23:03:31.771Z,77.40
2019-05-12T23:06:13.007Z,77.60
2019-05-12T23:08:38.736Z,77.80
2019-05-12T23:11:11.425Z,78.00
2019-05-12T23:13:43.354Z,78.10
2019-05-12T23:16:19.214Z,78.20
2019-05-12T23:18:49.598Z,78.00
2019-05-12T23:21:21.647Z,78.10
2019-05-12T23:23:57.505Z,77.90
2019-05-12T23:26:35.645Z,77.80
2019-05-12T23:29:04.229Z,78.00
2019-05-12T23:32:00.734Z,77.60
2019-05-12T23:34:30.758Z,78.00
2019-05-12T23:37:04.066Z,77.70
2019-05-12T23:39:38.082Z,77.70
2019-05-12T23:42:10.221Z,77.80
2019-05-12T23:44:44.164Z,78.10
2019-05-12T23:47:16.084Z,77.50
2019-05-12T23:50:09.096Z,77.30
2019-05-12T23:52:43.757Z,77.60
2019-05-12T23:55:15.383Z,77.00
2019-05-12T23:57:47.975Z,77.10
